createdAt,value
2017-08-24T00:00:15.769Z,939.46
2017-08-24T00:00:43.924Z,939.43
2017-08-24T00:01:11.989Z,939.5
2017-08-24T00:01:40.003Z,939.46
2017-08-24T00:02:08.139Z,939.47
2017-08-24T00:02:36.277Z,939.47
2017-08-24T00:03:04.286Z,939.51
2017-08-24T00:03:32.388Z,939.54
2017-08-24T00:04:00.526Z,939.55
2017-08-24T00:04:28.682Z,939.52
2017-08-24T00:04:56.708Z,939.54
2017-08-24T00:05:24.899Z,939.58
2017-08-24T00:05:53.468Z,939.54
2017-08-24T00:06:22.087Z,939.56
2017-08-24T00:06:50.575Z,939.64
2017-08-24T00:07:19.084Z,939.63
2017-08-24T00:07:47.598Z,939.63
2017-08-24T00:08:16.082Z,939.63
2017-08-24T00:08:44.511Z,939.61
2017-08-24T00:09:13.010Z,939.62
2017-08-24T00:09:41.587Z,939.65
2017-08-24T00:10:10.188Z,939.66
2017-08-24T00:10:38.673Z,939.62
2017-08-24T00:11:07.286Z,939.73
2017-08-24T00:11:35.794Z,939.69
2017-08-24T00:12:04.285Z,939.69
2017-08-24T00:12:32.862Z,939.64
2017-08-24T00:13:01.372Z,939.67
2017-08-24T00:13:29.951Z,939.66
2017-08-24T00:13:58.447Z,939.69
2017-08-24T00:14:27.040Z,939.67
2017-08-24T00:14:55.445Z,939.7
2017-08-24T00:15:23.948Z,939.7
2017-08-24T00:15:52.563Z,939.66
2017-08-24T00:16:21.180Z,939.66
2017-08-24T00:16:49.637Z,939.66
2017-08-24T00:17:18.270Z,939.63
2017-08-24T00:17:46.742Z,939.66
2017-08-24T00:18:15.043Z,939.63
2017-08-24T00:18:43.601Z,939.65
2017-08-24T00:19:12.122Z,939.67
2017-08-24T00:19:40.687Z,939.69
2017-08-24T00:20:09.210Z,939.71
2017-08-24T00:20:37.839Z,939.67
2017-08-24T00:21:06.248Z,939.66
2017-08-24T00:21:34.759Z,939.71
2017-08-24T00:22:03.376Z,939.7
2017-08-24T00:22:31.862Z,939.72
2017-08-24T00:23:00.474Z,939.73
2017-08-24T00:23:28.978Z,939.75
2017-08-24T00:23:57.506Z,939.75
2017-08-24T00:24:26.093Z,939.77
2017-08-24T00:24:54.671Z,939.75
2017-08-24T00:25:23.299Z,939.76
2017-08-24T00:25:51.784Z,939.75
2017-08-24T00:26:20.298Z,939.76
2017-08-24T00:26:48.905Z,939.72
2017-08-24T00:27:17.551Z,939.72
2017-08-24T00:27:46.052Z,939.71
2017-08-24T00:28:14.672Z,939.7
2017-08-24T00:28:43.178Z,939.74
2017-08-24T00:29:11.805Z,939.72
2017-08-24T00:29:40.319Z,939.71
2017-08-24T00:30:08.765Z,939.7
2017-08-24T00:31:20.760Z,939.72
2017-08-24T00:31:49.910Z,939.67
2017-08-24T00:32:19.350Z,939.68
2017-08-24T00:32:48.268Z,939.68
2017-08-24T00:33:17.882Z,939.7
2017-08-24T00:33:46.683Z,939.7
2017-08-24T00:34:29.847Z,939.72
2017-08-24T00:34:58.258Z,939.74
2017-08-24T00:35:26.737Z,939.76
2017-08-24T00:35:55.166Z,939.78
2017-08-24T00:36:23.765Z,939.74
2017-08-24T00:36:52.372Z,939.78
2017-08-24T00:37:20.936Z,939.81
2017-08-24T00:37:49.451Z,939.8
2017-08-24T00:38:17.919Z,939.81
2017-08-24T00:38:46.385Z,939.85
2017-08-24T00:39:14.980Z,939.79
2017-08-24T00:39:43.490Z,939.82
2017-08-24T00:40:12.087Z,939.83
2017-08-24T00:40:40.680Z,939.84
2017-08-24T00:41:09.282Z,939.84
2017-08-24T00:41:37.694Z,939.85
2017-08-24T00:42:06.270Z,939.83
2017-08-24T00:42:34.792Z,939.83
2017-08-24T00:43:03.205Z,939.82
2017-08-24T00:43:31.719Z,939.85
2017-08-24T00:44:00.376Z,939.83
2017-08-24T00:44:28.875Z,939.84
2017-08-24T00:44:57.494Z,939.83
2017-08-24T00:45:26.012Z,939.85
2017-08-24T00:45:54.609Z,939.87
2017-08-24T00:46:23.251Z,939.84
2017-08-24T00:46:51.850Z,939.84
2017-08-24T00:47:20.438Z,939.81
2017-08-24T00:47:49.043Z,939.8
2017-08-24T00:48:17.710Z,939.79
2017-08-24T00:48:46.302Z,939.8
2017-08-24T00:49:14.907Z,939.75
2017-08-24T00:49:43.685Z,939.79
2017-08-24T00:50:12.263Z,939.77
2017-08-24T00:50:40.849Z,939.77
2017-08-24T00:51:09.361Z,939.77
2017-08-24T00:51:37.955Z,939.72
2017-08-24T00:52:07.284Z,939.71
2017-08-24T00:52:35.801Z,939.71
2017-08-24T00:53:04.275Z,939.72
2017-08-24T00:53:32.749Z,939.71
2017-08-24T00:54:01.184Z,939.71
2017-08-24T00:54:29.713Z,939.73
2017-08-24T00:54:58.132Z,939.75
2017-08-24T00:55:26.571Z,939.77
2017-08-24T00:55:55.081Z,939.77
2017-08-24T00:56:23.885Z,939.77
2017-08-24T00:56:52.412Z,939.79
2017-08-24T00:57:20.930Z,939.78
2017-08-24T00:57:49.503Z,939.84
2017-08-24T00:58:17.958Z,939.82
2017-08-24T00:58:46.398Z,939.86
2017-08-24T00:59:14.921Z,939.84
2017-08-24T00:59:43.534Z,939.81
2017-08-24T01:00:12.171Z,939.83
2017-08-24T01:00:40.815Z,939.84
2017-08-24T01:01:09.324Z,939.83
2017-08-24T01:01:37.801Z,939.84
2017-08-24T01:02:06.392Z,939.85
2017-08-24T01:02:35.287Z,939.83
2017-08-24T01:03:04.147Z,939.85
2017-08-24T01:03:33.352Z,939.86
2017-08-24T01:04:01.990Z,939.84
2017-08-24T01:04:30.831Z,939.84
2017-08-24T01:04:59.688Z,939.83
2017-08-24T01:05:28.415Z,939.89
2017-08-24T01:05:57.134Z,939.87
2017-08-24T01:06:25.832Z,939.86
2017-08-24T01:06:54.489Z,939.84
2017-08-24T01:07:23.452Z,939.8
2017-08-24T01:07:52.398Z,939.82
2017-08-24T01:08:21.181Z,939.86
2017-08-24T01:08:49.973Z,939.84
2017-08-24T01:09:18.748Z,939.87
2017-08-24T01:09:47.696Z,939.88
2017-08-24T01:10:16.491Z,939.85
2017-08-24T01:10:45.438Z,939.9
2017-08-24T01:11:14.445Z,939.96
2017-08-24T01:11:43.633Z,939.9
2017-08-24T01:12:12.642Z,939.92
2017-08-24T01:12:41.524Z,939.9
2017-08-24T01:13:10.327Z,939.92
2017-08-24T01:13:38.996Z,939.93
2017-08-24T01:14:07.678Z,939.96
2017-08-24T01:14:36.412Z,939.94
2017-08-24T01:15:05.095Z,939.97
2017-08-24T01:15:33.819Z,939.93
2017-08-24T01:16:02.463Z,939.92
2017-08-24T01:16:31.322Z,939.96
2017-08-24T01:17:00.176Z,940
2017-08-24T01:17:29.003Z,939.97
2017-08-24T01:17:58.005Z,939.98
2017-08-24T01:18:26.812Z,940.01
2017-08-24T01:18:55.647Z,939.96
2017-08-24T01:19:24.407Z,939.97
2017-08-24T01:19:53.190Z,939.99
2017-08-24T01:20:21.894Z,939.98
2017-08-24T01:20:50.625Z,939.97
2017-08-24T01:21:19.258Z,939.98
2017-08-24T01:21:48.126Z,940
2017-08-24T01:22:16.849Z,939.99
2017-08-24T01:22:45.737Z,940.03
2017-08-24T01:23:14.669Z,940
2017-08-24T01:23:43.428Z,940.03
2017-08-24T01:24:12.085Z,939.98
2017-08-24T01:24:40.772Z,940.04
2017-08-24T01:25:09.507Z,940.04
2017-08-24T01:25:38.377Z,940.01
2017-08-24T01:26:06.999Z,940.01
2017-08-24T01:26:35.766Z,940.01
2017-08-24T01:27:04.534Z,940.01
2017-08-24T01:27:33.276Z,940.02
2017-08-24T01:28:02.802Z,940.02
2017-08-24T01:28:31.686Z,939.98
2017-08-24T01:29:00.722Z,940.02
2017-08-24T01:29:32.879Z,939.95
2017-08-24T01:30:00.975Z,939.99
2017-08-24T01:30:29.074Z,940.02
2017-08-24T01:30:57.429Z,939.94
2017-08-24T01:31:25.696Z,939.96
2017-08-24T01:31:54.212Z,940.02
2017-08-24T01:32:22.923Z,940.01
2017-08-24T01:32:51.318Z,940.01
2017-08-24T01:33:19.438Z,940.01
2017-08-24T01:33:47.530Z,940.03
2017-08-24T01:34:15.774Z,940.05
2017-08-24T01:34:43.911Z,940.06
2017-08-24T01:35:12.065Z,940.06
2017-08-24T01:35:40.091Z,940.05
2017-08-24T01:36:08.175Z,940.06
2017-08-24T01:36:36.309Z,940.08
2017-08-24T01:37:04.449Z,940.1
2017-08-24T01:37:32.490Z,940.1
2017-08-24T01:38:00.646Z,940.11
2017-08-24T01:38:28.766Z,940.09
2017-08-24T01:38:57.261Z,940.08
2017-08-24T01:39:25.398Z,940.09
2017-08-24T01:39:53.544Z,940.08
2017-08-24T01:40:22.089Z,940.12
2017-08-24T01:40:50.108Z,940.12
2017-08-24T01:41:18.698Z,940.06
2017-08-24T01:41:46.870Z,940.12
2017-08-24T01:42:14.909Z,940.11
2017-08-24T01:42:42.975Z,940.11
2017-08-24T01:43:11.071Z,940.13
2017-08-24T01:43:39.218Z,940.1
2017-08-24T01:44:07.617Z,940.1
2017-08-24T01:44:35.840Z,940.11
2017-08-24T01:45:03.967Z,940.13
2017-08-24T01:45:32.020Z,940.12
2017-08-24T01:46:00.152Z,940.12
2017-08-24T01:46:28.313Z,940.1
2017-08-24T01:46:56.915Z,940.09
2017-08-24T01:47:24.987Z,940.08
2017-08-24T01:47:53.025Z,940.14
2017-08-24T01:48:21.183Z,940.17
2017-08-24T01:48:49.132Z,940.11
2017-08-24T01:49:17.192Z,940.13
2017-08-24T01:49:45.397Z,940.15
2017-08-24T01:50:13.502Z,940.14
2017-08-24T01:50:41.640Z,940.14
2017-08-24T01:51:09.681Z,940.16
2017-08-24T01:51:37.786Z,940.18
2017-08-24T01:52:05.959Z,940.15
2017-08-24T01:52:33.896Z,940.18
2017-08-24T01:53:01.837Z,940.17
2017-08-24T01:53:29.801Z,940.21
2017-08-24T01:53:58.082Z,940.2
2017-08-24T01:54:26.236Z,940.25
2017-08-24T01:54:54.364Z,940.18
2017-08-24T01:55:22.698Z,940.22
2017-08-24T01:55:50.792Z,940.25
2017-08-24T01:56:19.031Z,940.2
2017-08-24T01:56:47.203Z,940.25
2017-08-24T01:57:15.975Z,940.23
2017-08-24T01:57:44.157Z,940.24
2017-08-24T01:58:12.110Z,940.27
2017-08-24T01:58:40.144Z,940.27
2017-08-24T01:59:08.595Z,940.23
2017-08-24T01:59:36.737Z,940.25
2017-08-24T02:00:04.911Z,940.26
2017-08-24T02:00:33.039Z,940.24
2017-08-24T02:01:01.299Z,940.26
2017-08-24T02:01:29.455Z,940.27
2017-08-24T02:01:57.384Z,940.28
2017-08-24T02:02:25.390Z,940.25
2017-08-24T02:02:53.438Z,940.3
2017-08-24T02:03:21.556Z,940.35
2017-08-24T02:03:49.680Z,940.32
2017-08-24T02:04:17.806Z,940.34
2017-08-24T02:04:45.933Z,940.35
2017-08-24T02:05:13.875Z,940.35
2017-08-24T02:05:41.905Z,940.34
2017-08-24T02:06:09.928Z,940.4
2017-08-24T02:06:38.092Z,940.31
2017-08-24T02:07:06.228Z,940.36
2017-08-24T02:07:34.351Z,940.36
2017-08-24T02:08:02.393Z,940.36
2017-08-24T02:08:30.439Z,940.34
2017-08-24T02:08:58.557Z,940.33
2017-08-24T02:09:26.577Z,940.34
2017-08-24T02:09:54.706Z,940.38
2017-08-24T02:10:22.828Z,940.33
2017-08-24T02:10:50.948Z,940.36
2017-08-24T02:11:19.093Z,940.34
2017-08-24T02:11:47.214Z,940.36
2017-08-24T02:12:15.233Z,940.32
2017-08-24T02:12:43.264Z,940.35
2017-08-24T02:13:11.380Z,940.32
2017-08-24T02:13:39.534Z,940.35
2017-08-24T02:14:07.677Z,940.34
2017-08-24T02:14:35.724Z,940.28
2017-08-24T02:15:03.705Z,940.32
2017-08-24T02:15:31.813Z,940.29
2017-08-24T02:15:59.941Z,940.31
2017-08-24T02:16:28.072Z,940.31
2017-08-24T02:16:56.123Z,940.35
2017-08-24T02:17:24.244Z,940.37
2017-08-24T02:17:52.293Z,940.38
2017-08-24T02:18:20.329Z,940.34
2017-08-24T02:18:48.356Z,940.38
2017-08-24T02:19:16.336Z,940.32
2017-08-24T02:19:44.703Z,940.32
2017-08-24T02:20:12.895Z,940.35
2017-08-24T02:20:40.989Z,940.35
2017-08-24T02:21:09.035Z,940.39
2017-08-24T02:21:37.164Z,940.37
2017-08-24T02:22:05.192Z,940.37
2017-08-24T02:22:33.300Z,940.42
2017-08-24T02:23:01.423Z,940.41
2017-08-24T02:23:29.555Z,940.41
2017-08-24T02:23:57.613Z,940.42
2017-08-24T02:24:25.633Z,940.43
2017-08-24T02:24:53.816Z,940.44
2017-08-24T02:25:21.969Z,940.45
2017-08-24T02:25:50.131Z,940.43
2017-08-24T02:26:18.455Z,940.39
2017-08-24T02:26:46.559Z,940.41
2017-08-24T02:27:14.666Z,940.4
2017-08-24T02:27:42.714Z,940.39
2017-08-24T02:28:10.737Z,940.41
2017-08-24T02:28:38.791Z,940.42
2017-08-24T02:29:06.841Z,940.43
2017-08-24T02:29:34.928Z,940.46
2017-08-24T02:30:03.046Z,940.43
2017-08-24T02:30:31.973Z,940.45
2017-08-24T02:31:00.090Z,940.4
2017-08-24T02:31:28.193Z,940.42
2017-08-24T02:31:56.311Z,940.39
2017-08-24T02:32:24.363Z,940.42
2017-08-24T02:32:52.517Z,940.44
2017-08-24T02:33:20.632Z,940.41
2017-08-24T02:33:48.767Z,940.43
2017-08-24T02:34:16.781Z,940.41
2017-08-24T02:34:44.814Z,940.4
2017-08-24T02:35:12.853Z,940.4
2017-08-24T02:35:40.992Z,940.41
2017-08-24T02:36:09.105Z,940.42
2017-08-24T02:36:37.040Z,940.4
2017-08-24T02:37:05.173Z,940.4
2017-08-24T02:37:33.284Z,940.46
2017-08-24T02:38:01.396Z,940.41
2017-08-24T02:38:29.442Z,940.39
2017-08-24T02:38:57.562Z,940.38
2017-08-24T02:39:25.664Z,940.37
2017-08-24T02:39:53.707Z,940.41
2017-08-24T02:40:21.781Z,940.42
2017-08-24T02:40:49.809Z,940.41
2017-08-24T02:41:17.933Z,940.41
2017-08-24T02:41:46.026Z,940.4
2017-08-24T02:42:14.171Z,940.43
2017-08-24T02:42:42.319Z,940.41
2017-08-24T02:43:10.462Z,940.38
2017-08-24T02:43:38.585Z,940.37
2017-08-24T02:44:06.619Z,940.36
2017-08-24T02:44:34.560Z,940.4
2017-08-24T02:45:02.602Z,940.37
2017-08-24T02:45:30.733Z,940.36
2017-08-24T02:45:58.787Z,940.34
2017-08-24T02:46:26.908Z,940.33
2017-08-24T02:46:55.063Z,940.36
2017-08-24T02:47:23.090Z,940.34
2017-08-24T02:47:51.999Z,940.33
2017-08-24T02:48:20.110Z,940.28
2017-08-24T02:48:48.224Z,940.29
2017-08-24T02:49:16.265Z,940.26
2017-08-24T02:49:44.206Z,940.26
2017-08-24T02:50:12.241Z,940.31
2017-08-24T02:50:40.289Z,940.28
2017-08-24T02:51:08.421Z,940.28
2017-08-24T02:51:36.546Z,940.29
2017-08-24T02:52:04.591Z,940.28
2017-08-24T02:52:32.709Z,940.26
2017-08-24T02:53:00.836Z,940.3
2017-08-24T02:53:28.963Z,940.31
2017-08-24T02:53:57.026Z,940.3
2017-08-24T02:54:25.036Z,940.27
2017-08-24T02:54:53.108Z,940.27
2017-08-24T02:55:21.178Z,940.27
2017-08-24T02:55:49.150Z,940.31
2017-08-24T02:56:17.180Z,940.27
2017-08-24T02:56:45.196Z,940.28
2017-08-24T02:57:13.339Z,940.33
2017-08-24T02:57:41.376Z,940.31
2017-08-24T02:58:09.341Z,940.33
2017-08-24T02:58:37.446Z,940.3
2017-08-24T02:59:05.596Z,940.3
2017-08-24T02:59:33.726Z,940.3
2017-08-24T03:00:01.747Z,940.28
2017-08-24T03:00:29.758Z,940.27
2017-08-24T03:00:57.818Z,940.29
2017-08-24T03:01:25.761Z,940.24
2017-08-24T03:01:53.800Z,940.26
2017-08-24T03:02:21.924Z,940.23
2017-08-24T03:02:49.941Z,940.25
2017-08-24T03:03:18.054Z,940.25
2017-08-24T03:03:46.192Z,940.23
2017-08-24T03:04:14.210Z,940.21
2017-08-24T03:04:42.296Z,940.25
2017-08-24T03:05:10.410Z,940.22
2017-08-24T03:05:38.558Z,940.23
2017-08-24T03:06:06.720Z,940.2
2017-08-24T03:06:34.753Z,940.22
2017-08-24T03:07:02.894Z,940.21
2017-08-24T03:07:31.000Z,940.23
2017-08-24T03:07:59.040Z,940.21
2017-08-24T03:08:27.157Z,940.19
2017-08-24T03:08:55.242Z,940.18
2017-08-24T03:09:23.359Z,940.2
2017-08-24T03:09:51.364Z,940.17
2017-08-24T03:10:19.507Z,940.18
2017-08-24T03:10:47.665Z,940.21
2017-08-24T03:11:15.757Z,940.2
2017-08-24T03:11:43.882Z,940.23
2017-08-24T03:12:11.826Z,940.23
2017-08-24T03:12:39.977Z,940.21
2017-08-24T03:13:09.015Z,940.2
2017-08-24T03:13:37.251Z,940.16
2017-08-24T03:14:05.303Z,940.18
2017-08-24T03:14:33.352Z,940.19
2017-08-24T03:15:01.299Z,940.19
2017-08-24T03:15:29.423Z,940.19
2017-08-24T03:15:57.459Z,940.19
2017-08-24T03:16:25.486Z,940.18
2017-08-24T03:16:53.433Z,940.2
2017-08-24T03:17:21.568Z,940.19
2017-08-24T03:17:49.695Z,940.18
2017-08-24T03:18:17.836Z,940.2
2017-08-24T03:18:45.861Z,940.21
2017-08-24T03:19:14.016Z,940.21
2017-08-24T03:19:42.128Z,940.24
2017-08-24T03:20:10.074Z,940.22
2017-08-24T03:20:38.129Z,940.2
2017-08-24T03:21:06.133Z,940.16
2017-08-24T03:21:34.250Z,940.14
2017-08-24T03:22:02.394Z,940.16
2017-08-24T03:22:30.495Z,940.21
2017-08-24T03:22:58.597Z,940.15
2017-08-24T03:23:26.731Z,940.13
2017-08-24T03:23:54.761Z,940.2
2017-08-24T03:24:22.906Z,940.18
2017-08-24T03:24:51.042Z,940.2
2017-08-24T03:25:19.000Z,940.18
2017-08-24T03:25:47.133Z,940.2
2017-08-24T03:26:15.276Z,940.19
2017-08-24T03:26:43.284Z,940.17
2017-08-24T03:27:11.435Z,940.16
2017-08-24T03:27:39.557Z,940.12
2017-08-24T03:28:07.596Z,940.12
2017-08-24T03:28:35.736Z,940.12
2017-08-24T03:29:03.775Z,940.17
2017-08-24T03:29:31.918Z,940.14
2017-08-24T03:29:59.946Z,940.16
2017-08-24T03:30:28.007Z,940.19
2017-08-24T03:30:56.071Z,940.19
2017-08-24T03:31:24.209Z,940.17
2017-08-24T03:31:52.346Z,940.16
2017-08-24T03:32:20.476Z,940.15
2017-08-24T03:32:48.621Z,940.14
2017-08-24T03:33:16.791Z,940.15
2017-08-24T03:33:44.922Z,940.15
2017-08-24T03:34:12.919Z,940.16
2017-08-24T03:34:41.074Z,940.14
2017-08-24T03:35:09.194Z,940.11
2017-08-24T03:35:37.219Z,940.12
2017-08-24T03:36:05.358Z,940.13
2017-08-24T03:36:33.400Z,940.1
2017-08-24T03:37:01.534Z,940.11
2017-08-24T03:37:29.658Z,940.13
2017-08-24T03:37:57.709Z,940.08
2017-08-24T03:38:25.745Z,940.09
2017-08-24T03:38:53.757Z,940.07
2017-08-24T03:39:21.867Z,940.09
2017-08-24T03:39:49.974Z,940.09
2017-08-24T03:40:18.082Z,940.07
2017-08-24T03:40:46.221Z,940.09
2017-08-24T03:41:14.348Z,940.11
2017-08-24T03:41:42.373Z,940.05
2017-08-24T03:42:10.458Z,940.04
2017-08-24T03:42:38.307Z,940.07
2017-08-24T03:43:06.439Z,940.04
2017-08-24T03:43:34.504Z,940.02
2017-08-24T03:44:02.654Z,940.04
2017-08-24T03:44:30.777Z,940.09
2017-08-24T03:44:58.895Z,940.05
2017-08-24T03:45:26.996Z,940.05
2017-08-24T03:45:55.130Z,940.04
2017-08-24T03:46:23.252Z,940.03
2017-08-24T03:46:51.365Z,940.05
2017-08-24T03:47:19.522Z,940.05
2017-08-24T03:47:47.470Z,940
2017-08-24T03:48:15.415Z,940.05
2017-08-24T03:48:43.525Z,940.06
2017-08-24T03:49:11.626Z,940
2017-08-24T03:49:39.745Z,940.05
2017-08-24T03:50:07.859Z,940.06
2017-08-24T03:50:35.830Z,940.03
2017-08-24T03:51:03.868Z,940.05
2017-08-24T03:51:31.998Z,940
2017-08-24T03:51:59.929Z,940.03
2017-08-24T03:52:28.064Z,940.01
2017-08-24T03:52:56.196Z,940.02
2017-08-24T03:53:24.340Z,940.05
2017-08-24T03:53:52.499Z,940.04
2017-08-24T03:54:20.620Z,940.09
2017-08-24T03:54:48.638Z,940.12
2017-08-24T03:55:16.670Z,940.09
2017-08-24T03:55:44.628Z,940.08
2017-08-24T03:56:12.765Z,940.05
2017-08-24T03:56:40.911Z,940.05
2017-08-24T03:57:08.954Z,940.03
2017-08-24T03:57:37.007Z,940.05
2017-08-24T03:58:05.146Z,940.05
2017-08-24T03:58:33.198Z,940.04
2017-08-24T03:59:01.242Z,940.04
2017-08-24T03:59:29.271Z,940.03
2017-08-24T03:59:57.266Z,940
2017-08-24T04:00:25.397Z,940.04
2017-08-24T04:00:53.523Z,940.01
2017-08-24T04:01:21.640Z,940.03
2017-08-24T04:01:49.772Z,940.05
2017-08-24T04:02:17.776Z,940.06
2017-08-24T04:02:45.790Z,940.06
2017-08-24T04:03:13.884Z,940.05
2017-08-24T04:03:41.924Z,940.04
2017-08-24T04:04:09.955Z,940
2017-08-24T04:04:38.101Z,940.02
2017-08-24T04:05:06.225Z,940.01
2017-08-24T04:05:34.351Z,939.98
2017-08-24T04:06:02.297Z,940.01
2017-08-24T04:06:30.325Z,940.05
2017-08-24T04:06:58.346Z,940.03
2017-08-24T04:07:26.492Z,940.02
2017-08-24T04:07:54.599Z,940.01
2017-08-24T04:08:22.622Z,940.04
2017-08-24T04:08:50.853Z,940.02
2017-08-24T04:09:18.987Z,940.03
2017-08-24T04:09:47.128Z,940.06
2017-08-24T04:10:15.187Z,940.06
2017-08-24T04:10:43.320Z,940.06
2017-08-24T04:11:11.396Z,940.07
2017-08-24T04:11:39.533Z,940.03
2017-08-24T04:12:07.552Z,940.05
2017-08-24T04:12:35.664Z,940.06
2017-08-24T04:13:03.780Z,940.04
2017-08-24T04:13:31.818Z,940.06
2017-08-24T04:13:59.852Z,940.02
2017-08-24T04:14:27.971Z,940.02
2017-08-24T04:14:56.095Z,940
2017-08-24T04:15:24.145Z,940.05
2017-08-24T04:15:52.290Z,940
2017-08-24T04:16:20.318Z,940.03
2017-08-24T04:16:48.354Z,940.02
2017-08-24T04:17:16.381Z,940.01
2017-08-24T04:17:44.511Z,940.02
2017-08-24T04:18:12.456Z,940.05
2017-08-24T04:18:40.482Z,940.03
2017-08-24T04:19:08.606Z,940.09
2017-08-24T04:19:36.746Z,940.02
2017-08-24T04:20:04.804Z,940.03
2017-08-24T04:20:32.807Z,940.03
2017-08-24T04:21:00.931Z,940.01
2017-08-24T04:21:29.053Z,940.03
2017-08-24T04:21:57.097Z,940.01
2017-08-24T04:22:25.142Z,939.98
2017-08-24T04:22:53.282Z,940.02
2017-08-24T04:23:21.421Z,939.98
2017-08-24T04:23:49.777Z,939.99
2017-08-24T04:24:17.874Z,939.96
2017-08-24T04:24:46.009Z,939.98
2017-08-24T04:25:14.059Z,939.98
2017-08-24T04:25:42.199Z,939.98
2017-08-24T04:26:10.217Z,939.95
2017-08-24T04:26:38.330Z,939.96
2017-08-24T04:27:06.541Z,939.94
2017-08-24T04:27:34.679Z,939.95
2017-08-24T04:28:02.732Z,939.93
2017-08-24T04:28:30.837Z,939.94
2017-08-24T04:28:58.873Z,939.91
2017-08-24T04:29:26.931Z,939.92
2017-08-24T04:29:54.870Z,939.93
2017-08-24T04:30:22.738Z,939.93
2017-08-24T04:30:50.877Z,939.96
2017-08-24T04:31:18.811Z,939.93
2017-08-24T04:31:46.940Z,939.94
2017-08-24T04:32:15.031Z,939.99
2017-08-24T04:32:43.078Z,940
2017-08-24T04:33:11.204Z,939.98
2017-08-24T04:33:39.170Z,939.95
2017-08-24T04:34:07.198Z,939.97
2017-08-24T04:34:35.339Z,939.98
2017-08-24T04:35:03.373Z,939.95
2017-08-24T04:35:31.370Z,939.96
2017-08-24T04:35:59.314Z,939.95
2017-08-24T04:36:27.436Z,939.96
2017-08-24T04:36:55.469Z,939.99
2017-08-24T04:37:23.605Z,939.92
2017-08-24T04:37:51.740Z,939.98
2017-08-24T04:38:19.768Z,939.94
2017-08-24T04:38:47.806Z,939.99
2017-08-24T04:39:15.937Z,940.02
2017-08-24T04:39:44.067Z,939.98
2017-08-24T04:40:12.109Z,939.98
2017-08-24T04:40:40.138Z,939.94
2017-08-24T04:41:08.088Z,939.9
2017-08-24T04:41:36.201Z,939.9
2017-08-24T04:42:04.254Z,939.92
2017-08-24T04:42:32.258Z,939.87
2017-08-24T04:43:00.378Z,939.93
2017-08-24T04:43:28.397Z,939.94
2017-08-24T04:43:56.542Z,939.94
2017-08-24T04:44:24.574Z,939.89
2017-08-24T04:44:52.674Z,939.83
2017-08-24T04:45:20.638Z,939.9
2017-08-24T04:45:48.781Z,939.87
2017-08-24T04:46:16.919Z,939.85
2017-08-24T04:46:44.928Z,939.91
2017-08-24T04:47:13.071Z,939.93
2017-08-24T04:47:41.210Z,939.89
2017-08-24T04:48:09.337Z,939.94
2017-08-24T04:48:37.474Z,939.91
2017-08-24T04:49:05.589Z,939.9
2017-08-24T04:49:33.716Z,939.91
2017-08-24T04:50:01.826Z,939.94
2017-08-24T04:50:29.839Z,939.96
2017-08-24T04:50:57.871Z,939.93
2017-08-24T04:51:25.895Z,939.98
2017-08-24T04:51:53.907Z,939.96
2017-08-24T04:52:21.877Z,939.99
2017-08-24T04:52:49.988Z,939.93
2017-08-24T04:53:18.109Z,940
2017-08-24T04:53:46.209Z,939.93
2017-08-24T04:54:14.340Z,939.96
2017-08-24T04:54:42.483Z,939.96
2017-08-24T04:55:10.405Z,939.96
2017-08-24T04:55:38.433Z,939.93
2017-08-24T04:56:06.483Z,939.93
2017-08-24T04:56:34.572Z,939.96
2017-08-24T04:57:02.668Z,939.93
2017-08-24T04:57:30.767Z,939.97
2017-08-24T04:57:58.604Z,939.94
2017-08-24T04:58:26.548Z,939.94
2017-08-24T04:58:54.606Z,939.91
2017-08-24T04:59:22.616Z,939.94
2017-08-24T04:59:50.649Z,939.92
2017-08-24T05:00:18.687Z,939.89
2017-08-24T05:00:46.844Z,939.9
2017-08-24T05:01:14.867Z,939.92
2017-08-24T05:01:42.979Z,939.94
2017-08-24T05:02:11.134Z,939.92
2017-08-24T05:02:39.161Z,939.96
2017-08-24T05:03:07.212Z,939.96
2017-08-24T05:03:35.166Z,939.95
2017-08-24T05:04:03.285Z,939.95
2017-08-24T05:04:31.316Z,939.97
2017-08-24T05:04:59.341Z,939.98
2017-08-24T05:05:27.389Z,940
2017-08-24T05:05:55.619Z,940.01
2017-08-24T05:06:23.655Z,940
2017-08-24T05:06:51.702Z,939.98
2017-08-24T05:07:19.800Z,940.03
2017-08-24T05:07:47.932Z,940.01
2017-08-24T05:08:16.050Z,940
2017-08-24T05:08:44.165Z,939.98
2017-08-24T05:09:12.177Z,939.97
2017-08-24T05:09:40.301Z,940
2017-08-24T05:10:08.437Z,939.95
2017-08-24T05:10:36.452Z,939.97
2017-08-24T05:11:04.563Z,939.92
2017-08-24T05:11:32.669Z,939.91
2017-08-24T05:12:00.805Z,939.89
2017-08-24T05:12:29.009Z,939.89
2017-08-24T05:12:57.135Z,939.9
2017-08-24T05:13:25.106Z,939.91
2017-08-24T05:13:53.254Z,939.89
2017-08-24T05:14:21.364Z,939.93
2017-08-24T05:14:49.485Z,939.92
2017-08-24T05:15:17.601Z,939.95
2017-08-24T05:15:45.645Z,939.93
2017-08-24T05:16:13.578Z,939.94
2017-08-24T05:16:41.715Z,939.93
2017-08-24T05:17:09.752Z,939.96
2017-08-24T05:17:37.895Z,939.92
2017-08-24T05:18:05.948Z,939.94
2017-08-24T05:18:34.013Z,939.96
2017-08-24T05:19:02.022Z,939.89
2017-08-24T05:19:30.165Z,939.91
2017-08-24T05:19:58.197Z,939.95
2017-08-24T05:20:26.145Z,939.93
2017-08-24T05:20:54.184Z,939.92
2017-08-24T05:21:22.316Z,939.95
2017-08-24T05:21:50.363Z,939.97
2017-08-24T05:22:18.487Z,939.93
2017-08-24T05:22:46.546Z,939.92
2017-08-24T05:23:14.660Z,939.93
2017-08-24T05:23:42.770Z,939.94
2017-08-24T05:24:10.661Z,939.94
2017-08-24T05:24:38.793Z,939.88
2017-08-24T05:25:06.923Z,939.94
2017-08-24T05:25:35.046Z,939.9
2017-08-24T05:26:03.150Z,939.93
2017-08-24T05:26:31.265Z,939.95
2017-08-24T05:26:59.286Z,939.95
2017-08-24T05:27:27.412Z,939.94
2017-08-24T05:27:55.372Z,939.97
2017-08-24T05:28:23.511Z,939.95
2017-08-24T05:28:51.526Z,939.96
2017-08-24T05:29:19.657Z,939.96
2017-08-24T05:29:47.673Z,939.99
2017-08-24T05:30:15.805Z,939.97
2017-08-24T05:30:43.834Z,939.95
2017-08-24T05:31:11.876Z,939.97
2017-08-24T05:31:39.992Z,939.98
2017-08-24T05:32:08.105Z,939.95
2017-08-24T05:32:36.247Z,939.96
2017-08-24T05:33:04.373Z,939.96
2017-08-24T05:33:32.503Z,939.97
2017-08-24T05:34:00.630Z,939.95
2017-08-24T05:34:28.734Z,939.92
2017-08-24T05:34:56.753Z,939.95
2017-08-24T05:35:24.854Z,939.91
2017-08-24T05:35:53.005Z,939.91
2017-08-24T05:36:21.037Z,939.89
2017-08-24T05:36:49.170Z,939.86
2017-08-24T05:37:17.169Z,939.88
2017-08-24T05:37:45.301Z,939.9
2017-08-24T05:38:13.407Z,939.87
2017-08-24T05:38:41.516Z,939.88
2017-08-24T05:39:09.644Z,939.92
2017-08-24T05:39:37.759Z,939.9
2017-08-24T05:40:05.811Z,939.89
2017-08-24T05:40:33.850Z,939.9
2017-08-24T05:41:01.977Z,939.93
2017-08-24T05:41:30.092Z,939.91
2017-08-24T05:41:58.165Z,939.93
2017-08-24T05:42:26.282Z,939.93
2017-08-24T05:42:54.303Z,939.94
2017-08-24T05:43:22.345Z,939.99
2017-08-24T05:43:50.483Z,939.95
2017-08-24T05:44:18.597Z,939.94
2017-08-24T05:44:46.732Z,939.96
2017-08-24T05:45:15.075Z,939.95
2017-08-24T05:45:43.197Z,939.96
2017-08-24T05:46:11.235Z,939.94
2017-08-24T05:46:39.269Z,939.95
2017-08-24T05:47:07.114Z,939.92
2017-08-24T05:47:35.231Z,939.92
2017-08-24T05:48:03.168Z,939.92
2017-08-24T05:48:31.300Z,939.9
2017-08-24T05:48:59.424Z,939.94
2017-08-24T05:49:27.489Z,939.9
2017-08-24T05:49:55.520Z,939.91
2017-08-24T05:50:23.638Z,939.89
2017-08-24T05:50:51.678Z,939.95
2017-08-24T05:51:19.702Z,939.94
2017-08-24T05:51:47.738Z,939.94
2017-08-24T05:52:15.845Z,939.91
2017-08-24T05:52:43.981Z,939.97
2017-08-24T05:53:11.908Z,939.91
2017-08-24T05:53:40.033Z,939.95
2017-08-24T05:54:07.963Z,939.9
2017-08-24T05:54:36.085Z,939.96